Terminal Aerodrome Forecast
Issued by NWS

Current Version | Previous Version | Text Only | Print | Product List | Glossary Off
Versions: 1 2 3 4 5 6 7 8 9 10 11 12 13 14 15 16 17 18 19 20 21 22 23

000
FTUS41 KRLX 231500 AAA
TAFCKB
TAF AMD
KCKB 231505Z 2315/2412 00000KT P6SM BKN250
     FM232100 VRB03KT 3SM -RA OVC050
     FM232300 07004KT 2SM -RA BR OVC020
     FM240500 VRB03KT 2SM -RA BR OVC008
     FM240800 00000KT 1SM -SN BR OVC008=

USA.gov is the U.S. government's official web portal to all federal, state and local government web resources and services.